createdAt,value
2022-12-25T00:01:12.950Z,10.90
2022-12-25T00:03:48.718Z,15.00
2022-12-25T00:06:17.391Z,14.20
2022-12-25T00:08:45.913Z,15.20
2022-12-25T00:11:19.864Z,14.20
2022-12-25T00:13:48.504Z,15.10
2022-12-25T00:16:19.650Z,14.00
2022-12-25T00:18:48.670Z,14.30
2022-12-25T00:21:17.680Z,12.60
2022-12-25T00:23:46.622Z,13.20
2022-12-25T00:26:17.749Z,13.20
2022-12-25T00:28:46.140Z,13.20
2022-12-25T00:31:17.745Z,12.30
2022-12-25T00:33:47.846Z,12.10
2022-12-25T00:36:18.449Z,11.60
2022-12-25T00:38:47.557Z,11.50
2022-12-25T00:41:39.554Z,11.40
2022-12-25T00:44:09.805Z,11.30
2022-12-25T00:46:38.239Z,10.80
2022-12-25T00:49:07.087Z,10.60
2022-12-25T00:51:35.135Z,10.50
2022-12-25T00:54:03.509Z,11.60
2022-12-25T00:56:31.884Z,10.60
2022-12-25T00:59:00.009Z,10.10
2022-12-25T01:01:28.364Z,11.10
2022-12-25T01:03:56.459Z,10.50
2022-12-25T01:06:25.548Z,11.70
2022-12-25T01:09:11.915Z,10.50
2022-12-25T01:11:40.057Z,12.00
2022-12-25T01:14:08.317Z,12.20
2022-12-25T01:16:36.872Z,12.30
2022-12-25T01:19:05.717Z,12.80
2022-12-25T01:21:33.778Z,12.70
2022-12-25T01:24:02.159Z,13.30
2022-12-25T01:26:30.397Z,16.00
2022-12-25T01:28:58.537Z,15.50
2022-12-25T01:31:27.026Z,14.80
2022-12-25T01:33:55.225Z,15.20
2022-12-25T01:36:25.902Z,13.10
2022-12-25T01:38:54.282Z,12.80
2022-12-25T01:41:24.752Z,15.20
2022-12-25T01:44:36.737Z,13.70
2022-12-25T01:47:06.881Z,12.60
2022-12-25T01:49:38.315Z,13.10
2022-12-25T01:52:17.487Z,11.90
2022-12-25T01:54:50.692Z,9.90
2022-12-25T01:57:23.379Z,9.80
2022-12-25T01:59:52.559Z,8.30
2022-12-25T02:02:21.484Z,9.00
2022-12-25T02:05:30.848Z,9.80
2022-12-25T02:10:29.287Z,9.10
2022-12-25T02:12:57.993Z,9.70
2022-12-25T02:15:35.339Z,8.80
2022-12-25T02:18:42.547Z,7.80
2022-12-25T02:22:08.781Z,8.10
2022-12-25T02:24:37.059Z,6.10
2022-12-25T02:27:32.381Z,5.70
2022-12-25T02:30:05.545Z,6.00
2022-12-25T02:32:47.199Z,5.80
2022-12-25T02:35:25.044Z,5.60
2022-12-25T02:38:02.481Z,6.40
2022-12-25T02:40:55.017Z,5.70
2022-12-25T02:43:53.160Z,6.40
2022-12-25T02:46:42.765Z,5.70
2022-12-25T02:49:34.822Z,7.20
2022-12-25T02:52:28.931Z,7.40
2022-12-25T02:55:21.511Z,10.30
2022-12-25T02:58:11.266Z,10.30
2022-12-25T03:01:03.671Z,10.50
2022-12-25T03:03:54.117Z,11.40
2022-12-25T03:06:43.267Z,11.40
2022-12-25T03:09:37.351Z,10.20
2022-12-25T03:12:15.582Z,11.20
2022-12-25T03:15:03.377Z,11.00
2022-12-25T03:17:33.494Z,11.40
2022-12-25T03:20:20.418Z,11.90
2022-12-25T03:23:08.088Z,9.40
2022-12-25T03:25:55.074Z,9.70
2022-12-25T03:28:23.659Z,12.30
2022-12-25T03:31:21.588Z,11.50
2022-12-25T03:34:17.643Z,11.00
2022-12-25T03:37:13.242Z,11.20
2022-12-25T03:39:55.047Z,12.10
2022-12-25T03:42:55.475Z,12.70
2022-12-25T03:45:52.427Z,11.80
2022-12-25T03:48:40.136Z,10.00
2022-12-25T03:51:32.297Z,11.30
2022-12-25T03:54:24.030Z,12.10
2022-12-25T03:57:11.038Z,11.60
2022-12-25T03:59:57.464Z,11.60
2022-12-25T04:02:44.417Z,11.10
2022-12-25T04:05:31.195Z,10.10
2022-12-25T04:08:17.527Z,10.40
2022-12-25T04:11:04.026Z,10.70
2022-12-25T04:13:50.425Z,10.90
2022-12-25T04:16:37.058Z,10.90
2022-12-25T04:19:23.868Z,11.70
2022-12-25T04:22:10.469Z,10.70
2022-12-25T04:24:56.847Z,9.90
2022-12-25T04:27:43.452Z,10.20
2022-12-25T04:30:30.797Z,11.30
2022-12-25T04:33:18.433Z,12.90
2022-12-25T04:36:08.294Z,13.40
2022-12-25T04:38:37.852Z,13.40
2022-12-25T04:41:06.962Z,11.70
2022-12-25T04:43:35.613Z,11.80
2022-12-25T04:46:04.724Z,11.90
2022-12-25T04:48:35.357Z,10.30
2022-12-25T04:51:21.222Z,11.40
2022-12-25T04:53:51.131Z,10.90
2022-12-25T04:56:20.881Z,10.50
2022-12-25T04:58:49.628Z,8.90
2022-12-25T05:01:17.809Z,8.40
2022-12-25T05:03:46.331Z,8.00
2022-12-25T05:06:14.853Z,9.30
2022-12-25T05:08:43.078Z,11.60
2022-12-25T05:11:14.514Z,9.80
2022-12-25T05:13:43.600Z,11.30
2022-12-25T05:16:15.543Z,10.60
2022-12-25T05:18:44.334Z,11.70
2022-12-25T05:21:12.590Z,10.80
2022-12-25T05:23:48.699Z,11.20
2022-12-25T05:26:25.473Z,11.90
2022-12-25T05:28:55.038Z,12.20
2022-12-25T05:31:23.697Z,11.10
2022-12-25T05:33:52.730Z,10.20
2022-12-25T05:36:21.126Z,11.50
2022-12-25T05:38:50.201Z,12.40
2022-12-25T05:41:18.322Z,12.50
2022-12-25T05:43:46.337Z,10.60
2022-12-25T05:46:14.734Z,10.80
2022-12-25T05:48:43.413Z,10.30
2022-12-25T05:51:14.120Z,11.40
2022-12-25T05:53:43.310Z,12.20
2022-12-25T05:56:11.452Z,11.30
2022-12-25T05:58:40.909Z,11.90
2022-12-25T06:03:50.584Z,9.00
2022-12-25T06:06:19.796Z,9.70
2022-12-25T06:11:16.155Z,10.50
2022-12-25T06:13:44.361Z,9.60
2022-12-25T06:16:12.857Z,9.40
2022-12-25T06:18:43.866Z,11.20
2022-12-25T06:21:14.201Z,10.10
2022-12-25T06:23:42.828Z,11.40
2022-12-25T06:26:14.862Z,12.00
2022-12-25T06:28:43.831Z,10.70
2022-12-25T06:31:15.088Z,11.00
2022-12-25T06:33:43.671Z,11.80
2022-12-25T06:36:15.402Z,11.80
2022-12-25T06:38:43.854Z,10.80
2022-12-25T06:41:18.245Z,13.50
2022-12-25T06:43:51.195Z,13.50
2022-12-25T06:46:20.803Z,12.50
2022-12-25T06:48:49.916Z,12.10
2022-12-25T06:51:23.796Z,12.10
2022-12-25T06:53:53.269Z,13.20
2022-12-25T06:59:06.939Z,11.40
2022-12-25T07:01:38.076Z,11.90
2022-12-25T07:04:15.684Z,13.10
2022-12-25T07:06:44.006Z,12.40
2022-12-25T07:09:12.487Z,10.80
2022-12-25T07:11:40.530Z,12.30
2022-12-25T07:14:23.494Z,12.10
2022-12-25T07:16:52.572Z,12.90
2022-12-25T07:19:20.744Z,12.70
2022-12-25T07:21:48.757Z,13.40
2022-12-25T07:24:23.686Z,13.10
2022-12-25T07:26:52.332Z,12.90
2022-12-25T07:29:20.476Z,14.60
2022-12-25T07:31:48.874Z,12.10
2022-12-25T07:34:18.261Z,12.50
2022-12-25T07:36:46.861Z,11.60
2022-12-25T07:39:16.447Z,11.60
2022-12-25T07:41:44.744Z,13.20
2022-12-25T07:44:16.380Z,12.20
2022-12-25T07:46:44.651Z,13.80
2022-12-25T07:49:12.821Z,15.30
2022-12-25T07:51:40.912Z,13.40
2022-12-25T07:54:09.101Z,13.20
2022-12-25T07:56:37.455Z,12.60
2022-12-25T07:59:05.607Z,14.20
2022-12-25T08:01:34.006Z,12.00
2022-12-25T08:04:02.837Z,11.90
2022-12-25T08:06:34.497Z,12.10
2022-12-25T08:09:08.804Z,10.30
2022-12-25T08:11:38.046Z,9.80
2022-12-25T08:14:08.051Z,9.10
2022-12-25T08:16:39.990Z,6.90
2022-12-25T08:19:09.637Z,7.50
2022-12-25T08:21:38.446Z,5.90
2022-12-25T08:24:07.413Z,6.10
2022-12-25T08:26:35.396Z,6.70
2022-12-25T08:29:03.963Z,6.00
2022-12-25T08:31:34.338Z,7.20
2022-12-25T08:34:03.808Z,8.60
2022-12-25T08:36:31.852Z,6.80
2022-12-25T08:39:03.339Z,8.60
2022-12-25T08:41:32.498Z,7.30
2022-12-25T08:44:00.853Z,8.00
2022-12-25T08:46:29.134Z,11.70
2022-12-25T08:48:57.646Z,14.10
2022-12-25T08:51:26.694Z,13.20
2022-12-25T08:53:59.834Z,11.50
2022-12-25T08:56:29.151Z,12.30
2022-12-25T08:58:57.801Z,13.70
2022-12-25T09:01:26.113Z,15.50
2022-12-25T09:03:54.455Z,16.10
2022-12-25T09:06:22.832Z,14.70
2022-12-25T09:08:51.075Z,14.10
2022-12-25T09:11:20.960Z,13.90
2022-12-25T09:13:49.433Z,14.90
2022-12-25T09:16:20.831Z,13.30
2022-12-25T09:18:49.768Z,12.50
2022-12-25T09:21:19.293Z,12.70
2022-12-25T09:23:48.538Z,14.00
2022-12-25T09:28:51.439Z,11.70
2022-12-25T09:31:23.328Z,13.50
2022-12-25T09:33:51.949Z,11.50
2022-12-25T09:36:23.427Z,10.80
2022-12-25T09:38:52.964Z,12.10
2022-12-25T09:41:30.058Z,10.60
2022-12-25T09:44:06.809Z,11.00
2022-12-25T09:47:21.280Z,9.00
2022-12-25T09:50:01.619Z,8.30
2022-12-25T09:52:55.358Z,8.50
2022-12-25T09:55:26.990Z,9.10
2022-12-25T09:57:58.180Z,10.20
2022-12-25T10:00:33.575Z,10.50
2022-12-25T10:03:16.504Z,10.80
2022-12-25T10:05:55.968Z,11.80
2022-12-25T10:08:42.686Z,11.60
2022-12-25T10:11:23.049Z,10.20
2022-12-25T10:14:09.176Z,9.80
2022-12-25T10:17:11.108Z,10.80
2022-12-25T10:19:52.233Z,10.40
2022-12-25T10:22:30.488Z,10.00
2022-12-25T10:25:00.767Z,11.30
2022-12-25T10:27:37.317Z,12.10
2022-12-25T10:30:16.030Z,12.00
2022-12-25T10:32:45.858Z,10.40
2022-12-25T10:35:16.897Z,8.50
2022-12-25T10:37:48.928Z,8.30
2022-12-25T10:40:22.921Z,9.70
2022-12-25T10:43:24.856Z,9.00
2022-12-25T10:45:52.808Z,8.70
2022-12-25T10:48:26.563Z,7.10
2022-12-25T10:50:56.110Z,8.10
2022-12-25T10:53:27.100Z,5.60
2022-12-25T10:56:03.849Z,5.00
2022-12-25T10:58:33.025Z,8.30
2022-12-25T11:01:05.225Z,3.70
2022-12-25T11:03:37.715Z,3.80
2022-12-25T11:06:20.561Z,3.40
2022-12-25T11:08:55.166Z,2.50
2022-12-25T11:11:24.299Z,3.60
2022-12-25T11:13:56.534Z,2.20
2022-12-25T11:16:31.828Z,2.30
2022-12-25T11:19:00.663Z,2.20
2022-12-25T11:21:37.205Z,2.60
2022-12-25T11:24:18.336Z,2.70
2022-12-25T11:26:52.246Z,2.50
2022-12-25T11:29:45.176Z,2.30
2022-12-25T11:32:16.756Z,2.20
2022-12-25T11:34:47.449Z,2.20
2022-12-25T11:37:33.401Z,2.60
2022-12-25T11:40:02.422Z,2.50
2022-12-25T11:42:35.684Z,2.20
2022-12-25T11:45:26.228Z,2.40
2022-12-25T11:47:59.073Z,2.00
2022-12-25T11:50:56.575Z,3.50
2022-12-25T11:53:44.634Z,6.50
2022-12-25T11:56:23.344Z,10.10
2022-12-25T11:58:55.000Z,8.30
2022-12-25T12:01:43.876Z,10.50
2022-12-25T12:07:06.464Z,7.80
2022-12-25T12:09:56.253Z,9.20
2022-12-25T12:12:34.333Z,10.20
2022-12-25T12:15:28.985Z,9.50
2022-12-25T12:18:09.628Z,10.60
2022-12-25T12:20:37.840Z,9.70
2022-12-25T12:23:15.785Z,9.40
2022-12-25T12:25:45.744Z,11.60
2022-12-25T12:28:22.923Z,12.80
2022-12-25T12:31:17.747Z,12.30
2022-12-25T12:33:53.771Z,10.40
2022-12-25T12:36:35.612Z,10.60
2022-12-25T12:39:06.070Z,10.80
2022-12-25T12:41:46.510Z,10.40
2022-12-25T12:44:17.707Z,10.90
2022-12-25T12:46:57.613Z,10.10
2022-12-25T12:49:28.745Z,10.40
2022-12-25T12:52:22.868Z,11.10
2022-12-25T12:55:02.278Z,10.50
2022-12-25T12:57:35.905Z,9.90
2022-12-25T13:00:11.322Z,11.30
2022-12-25T13:02:42.724Z,11.10
2022-12-25T13:05:34.742Z,11.10
2022-12-25T13:08:34.752Z,11.80
2022-12-25T13:11:24.869Z,11.10
2022-12-25T13:13:55.432Z,10.60
2022-12-25T13:16:34.950Z,10.70
2022-12-25T13:19:11.374Z,10.10
2022-12-25T13:21:39.413Z,9.80
2022-12-25T13:24:19.770Z,9.10
2022-12-25T13:26:48.223Z,9.90
2022-12-25T13:29:32.271Z,9.50
2022-12-25T13:32:03.981Z,11.30
2022-12-25T13:34:39.619Z,11.30
2022-12-25T13:37:15.534Z,11.60
2022-12-25T13:39:56.721Z,12.40
2022-12-25T13:42:31.225Z,11.00
2022-12-25T13:45:02.694Z,11.10
2022-12-25T13:47:39.601Z,11.20
2022-12-25T13:50:23.042Z,11.20
2022-12-25T13:52:52.113Z,11.80
2022-12-25T13:55:29.419Z,11.10
2022-12-25T13:58:03.983Z,11.50
2022-12-25T14:00:32.131Z,11.80
2022-12-25T14:03:00.692Z,10.30
2022-12-25T14:05:29.076Z,11.80
2022-12-25T14:07:59.757Z,10.70
2022-12-25T14:10:32.592Z,12.70
2022-12-25T14:13:07.010Z,11.70
2022-12-25T14:15:36.522Z,18.30
2022-12-25T14:18:05.221Z,11.70
2022-12-25T14:21:16.239Z,11.90
2022-12-25T14:23:48.156Z,27.00
2022-12-25T14:26:22.594Z,15.10
2022-12-25T14:28:58.392Z,15.70
2022-12-25T14:31:29.665Z,13.20
2022-12-25T14:34:00.190Z,14.30
2022-12-25T14:36:30.857Z,14.10
2022-12-25T14:39:04.840Z,14.30
2022-12-25T14:41:38.581Z,13.80
2022-12-25T14:44:32.109Z,14.90
2022-12-25T14:47:18.236Z,14.90
2022-12-25T14:49:47.696Z,17.00
2022-12-25T14:54:49.992Z,15.70
2022-12-25T14:57:31.178Z,15.40
2022-12-25T15:00:02.487Z,16.00
2022-12-25T15:02:40.778Z,15.70
2022-12-25T15:05:41.244Z,13.30
2022-12-25T15:08:12.259Z,16.00
2022-12-25T15:13:30.243Z,14.40
2022-12-25T15:16:04.573Z,15.60
2022-12-25T15:18:40.014Z,16.00
2022-12-25T15:21:17.980Z,15.00
2022-12-25T15:23:46.498Z,15.60
2022-12-25T15:26:15.295Z,15.70
2022-12-25T15:28:43.405Z,14.80
2022-12-25T15:31:29.326Z,13.10
2022-12-25T15:34:00.842Z,13.20
2022-12-25T15:36:29.352Z,12.90
2022-12-25T15:38:57.836Z,15.50
2022-12-25T15:41:58.069Z,15.20
2022-12-25T15:44:26.345Z,14.60
2022-12-25T15:46:54.868Z,14.10
2022-12-25T15:49:23.037Z,16.80
2022-12-25T15:51:51.064Z,17.60
2022-12-25T15:54:19.136Z,16.60
2022-12-25T15:56:50.619Z,17.60
2022-12-25T15:59:20.357Z,16.60
2022-12-25T16:01:51.492Z,17.00
2022-12-25T16:04:20.601Z,18.90
2022-12-25T16:06:49.622Z,20.50
2022-12-25T16:09:22.207Z,21.20
2022-12-25T16:11:50.820Z,20.80
2022-12-25T16:14:19.736Z,20.30
2022-12-25T16:16:48.039Z,21.20
2022-12-25T16:19:16.166Z,18.20
2022-12-25T16:21:46.255Z,19.80
2022-12-25T16:24:14.933Z,16.40
2022-12-25T16:26:43.706Z,20.70
2022-12-25T16:29:12.079Z,19.50
2022-12-25T16:31:41.514Z,15.30
2022-12-25T16:34:10.417Z,19.90
2022-12-25T16:36:39.219Z,17.70
2022-12-25T16:39:08.260Z,17.50
2022-12-25T16:41:36.430Z,20.20
2022-12-25T16:44:10.307Z,19.10
2022-12-25T16:46:39.966Z,17.50
2022-12-25T16:49:08.886Z,30.10
2022-12-25T16:51:37.208Z,36.70
2022-12-25T16:54:05.923Z,50.70
2022-12-25T16:56:36.761Z,33.90
2022-12-25T16:59:04.958Z,41.30
2022-12-25T17:01:33.381Z,34.60
2022-12-25T17:04:01.845Z,47.20
2022-12-25T17:06:30.648Z,47.00
2022-12-25T17:09:00.200Z,49.30
2022-12-25T17:11:32.095Z,45.40
2022-12-25T17:14:03.730Z,43.80
2022-12-25T17:16:36.687Z,45.30
2022-12-25T17:19:09.779Z,36.10
2022-12-25T17:21:38.604Z,37.40
2022-12-25T17:24:07.751Z,31.50
2022-12-25T17:26:36.246Z,29.60
2022-12-25T17:29:04.298Z,29.50
2022-12-25T17:31:32.879Z,32.80
2022-12-25T17:34:02.178Z,34.10
2022-12-25T17:39:00.987Z,26.70
2022-12-25T17:41:29.338Z,24.30
2022-12-25T17:43:57.817Z,20.00
2022-12-25T17:46:28.866Z,20.20
2022-12-25T17:48:59.324Z,21.30
2022-12-25T17:51:29.412Z,18.20
2022-12-25T17:53:59.960Z,17.10
2022-12-25T17:56:28.032Z,29.20
2022-12-25T17:58:58.852Z,28.80
2022-12-25T18:01:28.990Z,29.10
2022-12-25T18:04:00.389Z,42.60
2022-12-25T18:06:29.815Z,30.40
2022-12-25T18:08:58.489Z,30.00
2022-12-25T18:11:33.009Z,27.50
2022-12-25T18:14:04.068Z,27.40
2022-12-25T18:16:36.049Z,29.40
2022-12-25T18:19:04.448Z,31.90
2022-12-25T18:21:32.586Z,29.70
2022-12-25T18:24:03.500Z,39.00
2022-12-25T18:26:32.067Z,41.50
2022-12-25T18:29:00.572Z,45.50
2022-12-25T18:31:32.185Z,43.80
2022-12-25T18:34:00.546Z,54.10
2022-12-25T18:36:30.207Z,61.90
2022-12-25T18:38:59.197Z,53.60
2022-12-25T18:41:28.848Z,42.80
2022-12-25T18:43:59.807Z,45.60
2022-12-25T18:46:28.404Z,40.80
2022-12-25T18:48:57.699Z,38.90
2022-12-25T18:51:31.293Z,37.10
2022-12-25T18:54:02.968Z,35.40
2022-12-25T18:56:31.085Z,32.60
2022-12-25T18:59:00.765Z,24.60
2022-12-25T19:01:29.003Z,30.60
2022-12-25T19:04:04.359Z,26.30
2022-12-25T19:06:33.735Z,29.40
2022-12-25T19:09:09.141Z,34.00
2022-12-25T19:11:45.892Z,34.60
2022-12-25T19:14:14.880Z,31.20
2022-12-25T19:16:43.624Z,30.60
2022-12-25T19:19:11.931Z,35.50
2022-12-25T19:21:41.002Z,33.30
2022-12-25T19:24:09.405Z,34.70
2022-12-25T19:26:37.842Z,34.70
2022-12-25T19:29:06.163Z,37.40
2022-12-25T19:31:34.830Z,36.90
2022-12-25T19:34:03.083Z,35.90
2022-12-25T19:36:32.555Z,37.70
2022-12-25T19:39:01.209Z,37.60
2022-12-25T19:41:29.597Z,35.50
2022-12-25T19:43:57.760Z,41.20
2022-12-25T19:46:28.531Z,41.10
2022-12-25T19:48:57.278Z,42.20
2022-12-25T19:51:27.968Z,48.00
2022-12-25T19:53:56.497Z,47.50
2022-12-25T19:56:27.180Z,47.40
2022-12-25T19:58:56.279Z,46.90
2022-12-25T20:01:27.076Z,39.10
2022-12-25T20:03:55.433Z,38.00
2022-12-25T20:06:29.183Z,42.30
2022-12-25T20:09:02.435Z,43.10
2022-12-25T20:11:32.434Z,43.60
2022-12-25T20:14:01.022Z,39.20
2022-12-25T20:16:29.340Z,40.30
2022-12-25T20:18:58.801Z,42.80
2022-12-25T20:23:56.690Z,44.50
2022-12-25T20:26:27.926Z,38.40
2022-12-25T20:28:56.521Z,43.40
2022-12-25T20:31:29.923Z,45.30
2022-12-25T20:34:00.905Z,42.80
2022-12-25T20:36:36.118Z,42.00
2022-12-25T20:39:09.440Z,41.00
2022-12-25T20:41:38.889Z,46.70
2022-12-25T20:44:10.107Z,45.70
2022-12-25T20:46:38.904Z,51.60
2022-12-25T20:49:06.941Z,50.00
2022-12-25T20:51:35.784Z,46.20
2022-12-25T20:54:09.513Z,49.70
2022-12-25T20:56:37.861Z,51.20
2022-12-25T20:59:05.885Z,54.20
2022-12-25T21:01:34.208Z,57.40
2022-12-25T21:04:02.558Z,58.40
2022-12-25T21:06:30.874Z,62.10
2022-12-25T21:08:59.347Z,64.30
2022-12-25T21:11:27.601Z,47.90
2022-12-25T21:13:55.709Z,38.30
2022-12-25T21:16:24.961Z,42.80
2022-12-25T21:21:22.390Z,49.10
2022-12-25T21:23:51.144Z,45.70
2022-12-25T21:26:22.626Z,50.90
2022-12-25T21:28:54.136Z,49.80
2022-12-25T21:31:23.392Z,48.00
2022-12-25T21:33:53.130Z,49.90
2022-12-25T21:36:23.554Z,54.50
2022-12-25T21:38:54.441Z,55.00
2022-12-25T21:41:23.405Z,53.40
2022-12-25T21:43:52.173Z,58.60
2022-12-25T21:46:20.498Z,56.00
2022-12-25T21:48:49.033Z,57.60
2022-12-25T21:51:39.942Z,46.30
2022-12-25T21:54:09.143Z,44.50
2022-12-25T21:56:43.957Z,43.20
2022-12-25T21:59:19.708Z,40.90
2022-12-25T22:01:49.206Z,47.90
2022-12-25T22:04:19.470Z,49.90
2022-12-25T22:07:06.855Z,48.10
2022-12-25T22:09:35.563Z,45.30
2022-12-25T22:12:22.450Z,51.10
2022-12-25T22:14:54.160Z,46.50
2022-12-25T22:17:55.000Z,50.10
2022-12-25T22:22:59.023Z,38.30
2022-12-25T22:25:27.128Z,48.50
2022-12-25T22:27:55.613Z,48.30
2022-12-25T22:30:27.104Z,48.00
2022-12-25T22:32:56.016Z,47.40
2022-12-25T22:35:24.748Z,50.40
2022-12-25T22:37:54.291Z,50.00
2022-12-25T22:40:22.645Z,50.10
2022-12-25T22:42:54.256Z,48.20
2022-12-25T22:45:23.068Z,51.10
2022-12-25T22:47:51.368Z,51.60
2022-12-25T22:50:19.726Z,50.70
2022-12-25T22:52:47.865Z,49.10
2022-12-25T22:55:18.730Z,47.80
2022-12-25T22:57:46.868Z,49.10
2022-12-25T23:00:15.496Z,46.10
2022-12-25T23:02:43.737Z,52.10
2022-12-25T23:05:12.272Z,45.20
2022-12-25T23:07:41.911Z,49.90
2022-12-25T23:10:10.966Z,51.30
2022-12-25T23:12:58.055Z,47.80
2022-12-25T23:15:27.765Z,43.80
2022-12-25T23:18:14.467Z,46.60
2022-12-25T23:21:01.261Z,49.80
2022-12-25T23:23:55.878Z,47.60
2022-12-25T23:26:24.057Z,46.60
2022-12-25T23:29:10.785Z,46.30
2022-12-25T23:31:41.175Z,44.70
2022-12-25T23:34:10.447Z,43.60
2022-12-25T23:36:38.606Z,42.80
2022-12-25T23:39:09.939Z,41.80
2022-12-25T23:41:40.186Z,40.30
2022-12-25T23:46:37.694Z,43.40
2022-12-25T23:49:06.694Z,46.40
2022-12-25T23:51:36.828Z,45.20
2022-12-25T23:54:06.725Z,46.60
2022-12-25T23:56:34.985Z,45.60
2022-12-25T23:59:05.523Z,40.80
